sensor_id;sensor_type;location;lat;lon;timestamp;temperature;humidity
3298;DHT22;1661;53.572;10.174;2023-11-19T00:00:16;6.20;96.30
3298;DHT22;1661;53.572;10.174;2023-11-19T00:02:43;6.20;96.30
3298;DHT22;1661;53.572;10.174;2023-11-19T00:05:10;6.30;96.40
3298;DHT22;1661;53.572;10.174;2023-11-19T00:07:38;6.30;96.20
3298;DHT22;1661;53.572;10.174;2023-11-19T00:10:08;6.30;96.30
3298;DHT22;1661;53.572;10.174;2023-11-19T00:12:35;6.30;96.40
3298;DHT22;1661;53.572;10.174;2023-11-19T00:15:04;6.20;96.50
3298;DHT22;1661;53.572;10.174;2023-11-19T00:17:32;6.20;96.40
3298;DHT22;1661;53.572;10.174;2023-11-19T00:19:58;6.30;96.50
3298;DHT22;1661;53.572;10.174;2023-11-19T00:22:25;6.40;96.40
3298;DHT22;1661;53.572;10.174;2023-11-19T00:24:53;6.40;96.10
3298;DHT22;1661;53.572;10.174;2023-11-19T00:27:20;6.40;96.10
3298;DHT22;1661;53.572;10.174;2023-11-19T00:29:47;6.40;96.20
3298;DHT22;1661;53.572;10.174;2023-11-19T00:32:15;6.40;96.10
3298;DHT22;1661;53.572;10.174;2023-11-19T00:34:43;6.50;96.00
3298;DHT22;1661;53.572;10.174;2023-11-19T00:37:10;6.50;95.80
3298;DHT22;1661;53.572;10.174;2023-11-19T00:39:37;6.40;95.80
3298;DHT22;1661;53.572;10.174;2023-11-19T00:42:04;6.50;96.00
3298;DHT22;1661;53.572;10.174;2023-11-19T00:44:31;6.50;95.70
3298;DHT22;1661;53.572;10.174;2023-11-19T00:46:58;6.50;95.70
3298;DHT22;1661;53.572;10.174;2023-11-19T00:49:26;6.50;95.50
3298;DHT22;1661;53.572;10.174;2023-11-19T00:51:53;6.50;95.80
3298;DHT22;1661;53.572;10.174;2023-11-19T00:54:20;6.50;95.80
3298;DHT22;1661;53.572;10.174;2023-11-19T00:56:45;6.40;96.10
3298;DHT22;1661;53.572;10.174;2023-11-19T00:59:12;6.40;96.30
3298;DHT22;1661;53.572;10.174;2023-11-19T01:01:39;6.30;96.60
3298;DHT22;1661;53.572;10.174;2023-11-19T01:04:06;6.30;97.00
3298;DHT22;1661;53.572;10.174;2023-11-19T01:06:35;6.20;97.20
3298;DHT22;1661;53.572;10.174;2023-11-19T01:09:02;6.20;97.80
3298;DHT22;1661;53.572;10.174;2023-11-19T01:11:29;6.10;97.90
3298;DHT22;1661;53.572;10.174;2023-11-19T01:13:55;6.10;98.20
3298;DHT22;1661;53.572;10.174;2023-11-19T01:16:22;6.10;98.20
3298;DHT22;1661;53.572;10.174;2023-11-19T01:18:49;6.20;98.10
3298;DHT22;1661;53.572;10.174;2023-11-19T01:21:16;6.20;98.10
3298;DHT22;1661;53.572;10.174;2023-11-19T01:23:44;6.20;97.90
3298;DHT22;1661;53.572;10.174;2023-11-19T01:26:11;6.30;98.00
3298;DHT22;1661;53.572;10.174;2023-11-19T01:28:39;6.20;97.90
3298;DHT22;1661;53.572;10.174;2023-11-19T01:31:08;6.30;97.80
3298;DHT22;1661;53.572;10.174;2023-11-19T01:33:36;6.30;97.50
3298;DHT22;1661;53.572;10.174;2023-11-19T01:36:03;6.40;97.50
3298;DHT22;1661;53.572;10.174;2023-11-19T01:38:30;6.30;97.50
3298;DHT22;1661;53.572;10.174;2023-11-19T01:40:58;6.40;97.50
3298;DHT22;1661;53.572;10.174;2023-11-19T01:43:35;6.40;97.30
3298;DHT22;1661;53.572;10.174;2023-11-19T01:46:03;6.50;97.20
3298;DHT22;1661;53.572;10.174;2023-11-19T01:48:31;6.40;97.00
3298;DHT22;1661;53.572;10.174;2023-11-19T01:51:01;6.40;97.00
3298;DHT22;1661;53.572;10.174;2023-11-19T01:53:29;6.30;97.30
3298;DHT22;1661;53.572;10.174;2023-11-19T01:55:58;6.30;97.50
3298;DHT22;1661;53.572;10.174;2023-11-19T01:58:25;6.30;97.80
3298;DHT22;1661;53.572;10.174;2023-11-19T02:00:52;6.20;98.10
3298;DHT22;1661;53.572;10.174;2023-11-19T02:03:20;6.20;98.30
3298;DHT22;1661;53.572;10.174;2023-11-19T02:05:49;6.20;98.20
3298;DHT22;1661;53.572;10.174;2023-11-19T02:08:16;6.20;98.30
3298;DHT22;1661;53.572;10.174;2023-11-19T02:10:43;6.30;98.20
3298;DHT22;1661;53.572;10.174;2023-11-19T02:13:11;6.20;98.20
3298;DHT22;1661;53.572;10.174;2023-11-19T02:15:40;6.30;98.30
3298;DHT22;1661;53.572;10.174;2023-11-19T02:18:20;6.40;97.90
3298;DHT22;1661;53.572;10.174;2023-11-19T02:20:47;6.40;97.90
3298;DHT22;1661;53.572;10.174;2023-11-19T02:23:15;6.40;97.70
3298;DHT22;1661;53.572;10.174;2023-11-19T02:25:43;6.40;97.70
3298;DHT22;1661;53.572;10.174;2023-11-19T02:28:17;6.40;97.70
3298;DHT22;1661;53.572;10.174;2023-11-19T02:30:44;6.40;97.70
3298;DHT22;1661;53.572;10.174;2023-11-19T02:33:10;6.40;97.70
3298;DHT22;1661;53.572;10.174;2023-11-19T02:35:38;6.40;97.60
3298;DHT22;1661;53.572;10.174;2023-11-19T02:38:06;6.40;97.90
3298;DHT22;1661;53.572;10.174;2023-11-19T02:40:33;6.40;97.80
3298;DHT22;1661;53.572;10.174;2023-11-19T02:43:00;6.30;98.00
3298;DHT22;1661;53.572;10.174;2023-11-19T02:45:28;6.30;98.20
3298;DHT22;1661;53.572;10.174;2023-11-19T02:47:56;6.30;98.40
3298;DHT22;1661;53.572;10.174;2023-11-19T02:50:23;6.30;98.40
3298;DHT22;1661;53.572;10.174;2023-11-19T02:52:52;6.30;98.60
3298;DHT22;1661;53.572;10.174;2023-11-19T02:55:21;6.30;98.60
3298;DHT22;1661;53.572;10.174;2023-11-19T02:57:49;6.40;98.50
3298;DHT22;1661;53.572;10.174;2023-11-19T03:00:19;6.40;98.40
3298;DHT22;1661;53.572;10.174;2023-11-19T03:02:50;6.40;98.30
3298;DHT22;1661;53.572;10.174;2023-11-19T03:05:25;6.40;98.50
3298;DHT22;1661;53.572;10.174;2023-11-19T03:07:52;6.40;98.40
3298;DHT22;1661;53.572;10.174;2023-11-19T03:10:18;6.50;98.40
3298;DHT22;1661;53.572;10.174;2023-11-19T03:12:45;6.60;98.30
3298;DHT22;1661;53.572;10.174;2023-11-19T03:15:12;6.60;98.10
3298;DHT22;1661;53.572;10.174;2023-11-19T03:17:40;6.60;97.90
3298;DHT22;1661;53.572;10.174;2023-11-19T03:20:10;6.60;98.00
3298;DHT22;1661;53.572;10.174;2023-11-19T03:22:42;6.60;98.10
3298;DHT22;1661;53.572;10.174;2023-11-19T03:25:10;6.70;98.10
3298;DHT22;1661;53.572;10.174;2023-11-19T03:27:37;6.60;98.10
3298;DHT22;1661;53.572;10.174;2023-11-19T03:30:06;6.60;98.20
3298;DHT22;1661;53.572;10.174;2023-11-19T03:32:33;6.70;98.40
3298;DHT22;1661;53.572;10.174;2023-11-19T03:35:01;6.70;98.40
3298;DHT22;1661;53.572;10.174;2023-11-19T03:37:31;6.80;98.20
3298;DHT22;1661;53.572;10.174;2023-11-19T03:39:58;6.80;98.10
3298;DHT22;1661;53.572;10.174;2023-11-19T03:42:26;6.80;98.10
3298;DHT22;1661;53.572;10.174;2023-11-19T03:44:53;6.90;98.10
3298;DHT22;1661;53.572;10.174;2023-11-19T03:47:20;6.90;98.00
3298;DHT22;1661;53.572;10.174;2023-11-19T03:49:48;6.90;97.90
3298;DHT22;1661;53.572;10.174;2023-11-19T03:52:15;6.90;98.10
3298;DHT22;1661;53.572;10.174;2023-11-19T03:54:44;6.90;98.10
3298;DHT22;1661;53.572;10.174;2023-11-19T03:57:11;7.00;98.10
3298;DHT22;1661;53.572;10.174;2023-11-19T03:59:38;7.00;98.00
3298;DHT22;1661;53.572;10.174;2023-11-19T04:02:05;7.00;98.00
3298;DHT22;1661;53.572;10.174;2023-11-19T04:04:33;7.00;98.00
3298;DHT22;1661;53.572;10.174;2023-11-19T04:07:00;7.00;98.10
3298;DHT22;1661;53.572;10.174;2023-11-19T04:09:28;7.10;98.00
3298;DHT22;1661;53.572;10.174;2023-11-19T04:11:57;7.10;97.90
3298;DHT22;1661;53.572;10.174;2023-11-19T04:14:24;7.10;97.90
3298;DHT22;1661;53.572;10.174;2023-11-19T04:16:50;7.20;97.60
3298;DHT22;1661;53.572;10.174;2023-11-19T04:19:17;7.20;97.40
3298;DHT22;1661;53.572;10.174;2023-11-19T04:21:44;7.20;97.30
3298;DHT22;1661;53.572;10.174;2023-11-19T04:24:11;7.20;97.30
3298;DHT22;1661;53.572;10.174;2023-11-19T04:26:41;7.30;97.30
3298;DHT22;1661;53.572;10.174;2023-11-19T04:29:10;7.30;97.20
3298;DHT22;1661;53.572;10.174;2023-11-19T04:31:38;7.30;97.20
3298;DHT22;1661;53.572;10.174;2023-11-19T04:34:04;7.30;97.40
3298;DHT22;1661;53.572;10.174;2023-11-19T04:36:31;7.30;97.30
3298;DHT22;1661;53.572;10.174;2023-11-19T04:38:58;7.30;97.30
3298;DHT22;1661;53.572;10.174;2023-11-19T04:41:26;7.40;97.30
3298;DHT22;1661;53.572;10.174;2023-11-19T04:43:53;7.40;97.20
3298;DHT22;1661;53.572;10.174;2023-11-19T04:46:22;7.40;97.30
3298;DHT22;1661;53.572;10.174;2023-11-19T04:48:50;7.40;97.40
3298;DHT22;1661;53.572;10.174;2023-11-19T04:51:17;7.40;97.40
3298;DHT22;1661;53.572;10.174;2023-11-19T04:53:43;7.50;97.40
3298;DHT22;1661;53.572;10.174;2023-11-19T04:56:11;7.50;97.60
3298;DHT22;1661;53.572;10.174;2023-11-19T04:58:39;7.40;97.90
3298;DHT22;1661;53.572;10.174;2023-11-19T05:01:05;7.50;97.90
3298;DHT22;1661;53.572;10.174;2023-11-19T05:03:33;7.50;97.90
3298;DHT22;1661;53.572;10.174;2023-11-19T05:06:01;7.60;97.90
3298;DHT22;1661;53.572;10.174;2023-11-19T05:08:28;7.70;98.00
3298;DHT22;1661;53.572;10.174;2023-11-19T05:10:55;7.70;97.80
3298;DHT22;1661;53.572;10.174;2023-11-19T05:13:23;7.80;97.80
3298;DHT22;1661;53.572;10.174;2023-11-19T05:15:49;7.90;97.60
3298;DHT22;1661;53.572;10.174;2023-11-19T05:18:16;8.00;97.50
3298;DHT22;1661;53.572;10.174;2023-11-19T05:20:45;8.00;97.30
3298;DHT22;1661;53.572;10.174;2023-11-19T05:23:12;8.00;97.30
3298;DHT22;1661;53.572;10.174;2023-11-19T05:25:38;8.10;97.30
3298;DHT22;1661;53.572;10.174;2023-11-19T05:28:05;8.20;97.30
3298;DHT22;1661;53.572;10.174;2023-11-19T05:30:32;8.20;97.30
3298;DHT22;1661;53.572;10.174;2023-11-19T05:32:59;8.20;97.30
3298;DHT22;1661;53.572;10.174;2023-11-19T05:35:26;8.30;97.30
3298;DHT22;1661;53.572;10.174;2023-11-19T05:37:54;8.30;97.10
3298;DHT22;1661;53.572;10.174;2023-11-19T05:40:21;8.40;97.10
3298;DHT22;1661;53.572;10.174;2023-11-19T05:42:48;8.50;97.00
3298;DHT22;1661;53.572;10.174;2023-11-19T05:45:15;8.50;97.00
3298;DHT22;1661;53.572;10.174;2023-11-19T05:47:42;8.60;96.90
3298;DHT22;1661;53.572;10.174;2023-11-19T05:50:09;8.60;97.00
3298;DHT22;1661;53.572;10.174;2023-11-19T05:52:36;8.60;97.10
3298;DHT22;1661;53.572;10.174;2023-11-19T05:55:05;8.70;97.20
3298;DHT22;1661;53.572;10.174;2023-11-19T05:57:35;8.70;97.20
3298;DHT22;1661;53.572;10.174;2023-11-19T06:00:02;8.80;97.20
3298;DHT22;1661;53.572;10.174;2023-11-19T06:02:32;8.90;97.30
3298;DHT22;1661;53.572;10.174;2023-11-19T06:04:59;9.00;97.30
3298;DHT22;1661;53.572;10.174;2023-11-19T06:07:26;9.00;97.20
3298;DHT22;1661;53.572;10.174;2023-11-19T06:09:53;9.10;97.30
3298;DHT22;1661;53.572;10.174;2023-11-19T06:12:21;9.10;97.20
3298;DHT22;1661;53.572;10.174;2023-11-19T06:14:48;9.20;97.10
3298;DHT22;1661;53.572;10.174;2023-11-19T06:17:14;9.30;97.00
3298;DHT22;1661;53.572;10.174;2023-11-19T06:19:41;9.40;97.00
3298;DHT22;1661;53.572;10.174;2023-11-19T06:22:08;9.40;96.90
3298;DHT22;1661;53.572;10.174;2023-11-19T06:24:35;9.50;96.80
3298;DHT22;1661;53.572;10.174;2023-11-19T06:27:02;9.50;96.70
3298;DHT22;1661;53.572;10.174;2023-11-19T06:29:31;9.60;96.60
3298;DHT22;1661;53.572;10.174;2023-11-19T06:31:58;9.60;96.70
3298;DHT22;1661;53.572;10.174;2023-11-19T06:34:24;9.70;96.60
3298;DHT22;1661;53.572;10.174;2023-11-19T06:36:51;9.70;96.60
3298;DHT22;1661;53.572;10.174;2023-11-19T06:39:18;9.80;96.70
3298;DHT22;1661;53.572;10.174;2023-11-19T06:41:45;9.90;96.90
3298;DHT22;1661;53.572;10.174;2023-11-19T06:44:12;9.90;97.40
3298;DHT22;1661;53.572;10.174;2023-11-19T06:46:41;10.00;97.80
3298;DHT22;1661;53.572;10.174;2023-11-19T06:49:07;10.10;98.00
3298;DHT22;1661;53.572;10.174;2023-11-19T06:51:34;10.20;98.40
3298;DHT22;1661;53.572;10.174;2023-11-19T06:54:01;10.30;98.50
3298;DHT22;1661;53.572;10.174;2023-11-19T06:56:28;10.40;98.80
3298;DHT22;1661;53.572;10.174;2023-11-19T06:58:55;10.50;99.10
3298;DHT22;1661;53.572;10.174;2023-11-19T07:01:21;10.60;99.10
3298;DHT22;1661;53.572;10.174;2023-11-19T07:03:49;10.70;99.20
3298;DHT22;1661;53.572;10.174;2023-11-19T07:06:16;10.80;99.40
3298;DHT22;1661;53.572;10.174;2023-11-19T07:08:43;10.90;99.40
3298;DHT22;1661;53.572;10.174;2023-11-19T07:11:11;11.10;99.20
3298;DHT22;1661;53.572;10.174;2023-11-19T07:13:39;11.10;99.30
3298;DHT22;1661;53.572;10.174;2023-11-19T07:16:07;11.20;99.40
3298;DHT22;1661;53.572;10.174;2023-11-19T07:18:36;11.20;99.60
3298;DHT22;1661;53.572;10.174;2023-11-19T07:21:04;11.30;99.50
3298;DHT22;1661;53.572;10.174;2023-11-19T07:23:31;11.30;99.80
3298;DHT22;1661;53.572;10.174;2023-11-19T07:25:58;11.40;99.80
3298;DHT22;1661;53.572;10.174;2023-11-19T07:28:25;11.40;99.90
3298;DHT22;1661;53.572;10.174;2023-11-19T07:30:54;11.50;99.90
3298;DHT22;1661;53.572;10.174;2023-11-19T07:33:22;11.50;99.80
3298;DHT22;1661;53.572;10.174;2023-11-19T07:35:49;11.60;99.50
3298;DHT22;1661;53.572;10.174;2023-11-19T07:38:17;11.60;99.30
3298;DHT22;1661;53.572;10.174;2023-11-19T07:40:44;11.60;99.10
3298;DHT22;1661;53.572;10.174;2023-11-19T07:43:11;11.70;98.90
3298;DHT22;1661;53.572;10.174;2023-11-19T07:45:38;11.70;98.50
3298;DHT22;1661;53.572;10.174;2023-11-19T07:48:05;11.70;98.30
3298;DHT22;1661;53.572;10.174;2023-11-19T07:50:32;11.80;98.30
3298;DHT22;1661;53.572;10.174;2023-11-19T07:52:58;11.80;98.00
3298;DHT22;1661;53.572;10.174;2023-11-19T07:55:27;11.90;97.90
3298;DHT22;1661;53.572;10.174;2023-11-19T07:57:54;12.00;97.60
3298;DHT22;1661;53.572;10.174;2023-11-19T08:00:21;12.00;97.30
3298;DHT22;1661;53.572;10.174;2023-11-19T08:02:48;12.10;97.00
3298;DHT22;1661;53.572;10.174;2023-11-19T08:05:15;12.20;97.00
3298;DHT22;1661;53.572;10.174;2023-11-19T08:07:41;12.20;96.90
3298;DHT22;1661;53.572;10.174;2023-11-19T08:10:08;12.20;96.70
3298;DHT22;1661;53.572;10.174;2023-11-19T08:12:38;12.30;96.60
3298;DHT22;1661;53.572;10.174;2023-11-19T08:15:06;12.30;96.40
3298;DHT22;1661;53.572;10.174;2023-11-19T08:17:33;12.30;96.10
3298;DHT22;1661;53.572;10.174;2023-11-19T08:20:02;12.30;96.20
3298;DHT22;1661;53.572;10.174;2023-11-19T08:22:30;12.30;96.20
3298;DHT22;1661;53.572;10.174;2023-11-19T08:24:57;12.30;96.20
3298;DHT22;1661;53.572;10.174;2023-11-19T08:27:23;12.30;96.10
3298;DHT22;1661;53.572;10.174;2023-11-19T08:29:54;12.30;96.00
3298;DHT22;1661;53.572;10.174;2023-11-19T08:32:22;12.30;95.90
3298;DHT22;1661;53.572;10.174;2023-11-19T08:34:49;12.30;95.70
3298;DHT22;1661;53.572;10.174;2023-11-19T08:37:16;12.30;95.60
3298;DHT22;1661;53.572;10.174;2023-11-19T08:39:43;12.20;95.70
3298;DHT22;1661;53.572;10.174;2023-11-19T08:42:10;12.30;95.90
3298;DHT22;1661;53.572;10.174;2023-11-19T08:44:37;12.30;95.90
3298;DHT22;1661;53.572;10.174;2023-11-19T08:47:05;12.30;95.40
3298;DHT22;1661;53.572;10.174;2023-11-19T08:49:32;12.30;95.50
3298;DHT22;1661;53.572;10.174;2023-11-19T08:51:58;12.20;95.80
3298;DHT22;1661;53.572;10.174;2023-11-19T08:54:25;12.30;95.90
3298;DHT22;1661;53.572;10.174;2023-11-19T08:56:52;12.30;95.50
3298;DHT22;1661;53.572;10.174;2023-11-19T08:59:19;12.30;95.20
3298;DHT22;1661;53.572;10.174;2023-11-19T09:01:45;12.40;95.20
3298;DHT22;1661;53.572;10.174;2023-11-19T09:04:14;12.40;94.80
3298;DHT22;1661;53.572;10.174;2023-11-19T09:06:41;12.40;94.70
3298;DHT22;1661;53.572;10.174;2023-11-19T09:09:09;12.40;94.50
3298;DHT22;1661;53.572;10.174;2023-11-19T09:11:36;12.40;94.60
3298;DHT22;1661;53.572;10.174;2023-11-19T09:14:03;12.50;94.50
3298;DHT22;1661;53.572;10.174;2023-11-19T09:16:31;12.50;94.50
3298;DHT22;1661;53.572;10.174;2023-11-19T09:18:57;12.60;94.10
3298;DHT22;1661;53.572;10.174;2023-11-19T09:21:26;12.60;94.10
3298;DHT22;1661;53.572;10.174;2023-11-19T09:23:54;12.60;93.40
3298;DHT22;1661;53.572;10.174;2023-11-19T09:26:21;12.60;93.40
3298;DHT22;1661;53.572;10.174;2023-11-19T09:28:48;12.60;93.60
3298;DHT22;1661;53.572;10.174;2023-11-19T09:31:17;12.70;93.10
3298;DHT22;1661;53.572;10.174;2023-11-19T09:33:45;12.70;93.10
3298;DHT22;1661;53.572;10.174;2023-11-19T09:36:12;12.70;93.00
3298;DHT22;1661;53.572;10.174;2023-11-19T09:38:40;12.70;92.50
3298;DHT22;1661;53.572;10.174;2023-11-19T09:41:07;12.70;92.30
3298;DHT22;1661;53.572;10.174;2023-11-19T09:43:36;12.70;92.10
3298;DHT22;1661;53.572;10.174;2023-11-19T09:46:05;12.60;91.70
3298;DHT22;1661;53.572;10.174;2023-11-19T09:48:33;12.70;91.80
3298;DHT22;1661;53.572;10.174;2023-11-19T09:51:02;12.70;91.60
3298;DHT22;1661;53.572;10.174;2023-11-19T09:53:29;12.70;91.00
3298;DHT22;1661;53.572;10.174;2023-11-19T09:56:00;12.70;90.70
3298;DHT22;1661;53.572;10.174;2023-11-19T09:58:28;12.70;91.10
3298;DHT22;1661;53.572;10.174;2023-11-19T10:00:55;12.80;91.10
3298;DHT22;1661;53.572;10.174;2023-11-19T10:03:25;12.90;90.70
3298;DHT22;1661;53.572;10.174;2023-11-19T10:05:54;12.90;90.30
3298;DHT22;1661;53.572;10.174;2023-11-19T10:08:21;13.00;90.30
3298;DHT22;1661;53.572;10.174;2023-11-19T10:10:48;13.10;90.40
3298;DHT22;1661;53.572;10.174;2023-11-19T10:13:16;13.30;89.60
3298;DHT22;1661;53.572;10.174;2023-11-19T10:15:43;13.30;88.80
3298;DHT22;1661;53.572;10.174;2023-11-19T10:18:10;13.40;88.50
3298;DHT22;1661;53.572;10.174;2023-11-19T10:20:37;13.50;87.30
3298;DHT22;1661;53.572;10.174;2023-11-19T10:23:07;13.50;87.00
3298;DHT22;1661;53.572;10.174;2023-11-19T10:25:34;13.50;86.70
3298;DHT22;1661;53.572;10.174;2023-11-19T10:28:00;13.40;86.70
3298;DHT22;1661;53.572;10.174;2023-11-19T10:30:30;13.40;87.00
3298;DHT22;1661;53.572;10.174;2023-11-19T10:33:04;13.30;87.50
3298;DHT22;1661;53.572;10.174;2023-11-19T10:35:31;13.20;87.90
3298;DHT22;1661;53.572;10.174;2023-11-19T10:37:59;13.10;88.20
3298;DHT22;1661;53.572;10.174;2023-11-19T10:40:38;13.00;88.50
3298;DHT22;1661;53.572;10.174;2023-11-19T10:43:06;13.00;89.10
3298;DHT22;1661;53.572;10.174;2023-11-19T10:45:35;13.00;89.20
3298;DHT22;1661;53.572;10.174;2023-11-19T10:48:03;13.10;89.50
3298;DHT22;1661;53.572;10.174;2023-11-19T10:50:32;13.00;88.90
3298;DHT22;1661;53.572;10.174;2023-11-19T10:52:59;12.90;89.20
3298;DHT22;1661;53.572;10.174;2023-11-19T10:55:27;12.80;89.40
3298;DHT22;1661;53.572;10.174;2023-11-19T10:57:59;12.80;89.50
3298;DHT22;1661;53.572;10.174;2023-11-19T11:00:27;12.80;89.90
3298;DHT22;1661;53.572;10.174;2023-11-19T11:03:00;12.90;89.80
3298;DHT22;1661;53.572;10.174;2023-11-19T11:05:30;12.90;90.10
3298;DHT22;1661;53.572;10.174;2023-11-19T11:08:00;12.90;90.40
3298;DHT22;1661;53.572;10.174;2023-11-19T11:10:28;13.00;90.50
3298;DHT22;1661;53.572;10.174;2023-11-19T11:12:59;13.00;90.50
3298;DHT22;1661;53.572;10.174;2023-11-19T11:15:30;13.00;90.00
3298;DHT22;1661;53.572;10.174;2023-11-19T11:17:59;13.00;90.30
3298;DHT22;1661;53.572;10.174;2023-11-19T11:20:28;13.00;90.10
3298;DHT22;1661;53.572;10.174;2023-11-19T11:23:06;13.00;90.10
3298;DHT22;1661;53.572;10.174;2023-11-19T11:25:42;13.00;89.90
3298;DHT22;1661;53.572;10.174;2023-11-19T11:28:21;13.10;89.80
3298;DHT22;1661;53.572;10.174;2023-11-19T11:31:06;13.10;89.40
3298;DHT22;1661;53.572;10.174;2023-11-19T11:36:24;13.00;89.20
3298;DHT22;1661;53.572;10.174;2023-11-19T11:38:53;12.90;89.70
3298;DHT22;1661;53.572;10.174;2023-11-19T11:41:25;13.00;89.80
3298;DHT22;1661;53.572;10.174;2023-11-19T11:43:53;13.00;89.70
3298;DHT22;1661;53.572;10.174;2023-11-19T11:49:32;13.00;89.50
3298;DHT22;1661;53.572;10.174;2023-11-19T11:52:03;12.90;89.50
3298;DHT22;1661;53.572;10.174;2023-11-19T11:54:31;12.90;89.50
3298;DHT22;1661;53.572;10.174;2023-11-19T11:57:03;12.90;89.50
3298;DHT22;1661;53.572;10.174;2023-11-19T11:59:36;12.90;89.80
3298;DHT22;1661;53.572;10.174;2023-11-19T12:02:04;12.90;90.10
3298;DHT22;1661;53.572;10.174;2023-11-19T12:04:34;13.00;90.20
3298;DHT22;1661;53.572;10.174;2023-11-19T12:07:05;13.00;90.10
3298;DHT22;1661;53.572;10.174;2023-11-19T12:09:32;13.10;90.30
3298;DHT22;1661;53.572;10.174;2023-11-19T12:12:17;13.10;90.20
3298;DHT22;1661;53.572;10.174;2023-11-19T12:15:01;13.10;90.10
3298;DHT22;1661;53.572;10.174;2023-11-19T12:17:44;13.10;89.90
3298;DHT22;1661;53.572;10.174;2023-11-19T12:20:16;13.10;89.90
3298;DHT22;1661;53.572;10.174;2023-11-19T12:22:44;13.00;89.50
3298;DHT22;1661;53.572;10.174;2023-11-19T12:25:12;13.00;89.80
3298;DHT22;1661;53.572;10.174;2023-11-19T12:27:41;13.10;89.80
3298;DHT22;1661;53.572;10.174;2023-11-19T12:30:08;13.10;89.70
3298;DHT22;1661;53.572;10.174;2023-11-19T12:32:39;13.10;89.10
3298;DHT22;1661;53.572;10.174;2023-11-19T12:35:07;13.00;89.20
3298;DHT22;1661;53.572;10.174;2023-11-19T12:37:41;13.00;89.20
3298;DHT22;1661;53.572;10.174;2023-11-19T12:40:14;12.90;88.70
3298;DHT22;1661;53.572;10.174;2023-11-19T12:42:43;12.90;89.20
3298;DHT22;1661;53.572;10.174;2023-11-19T12:45:10;12.90;89.10
3298;DHT22;1661;53.572;10.174;2023-11-19T12:47:38;12.90;89.10
3298;DHT22;1661;53.572;10.174;2023-11-19T12:50:05;12.90;88.80
3298;DHT22;1661;53.572;10.174;2023-11-19T12:52:33;12.90;88.80
3298;DHT22;1661;53.572;10.174;2023-11-19T12:55:02;13.00;88.80
3298;DHT22;1661;53.572;10.174;2023-11-19T12:57:39;13.00;88.60
3298;DHT22;1661;53.572;10.174;2023-11-19T13:00:07;12.90;89.00
3298;DHT22;1661;53.572;10.174;2023-11-19T13:02:48;12.90;89.20
3298;DHT22;1661;53.572;10.174;2023-11-19T13:05:23;13.00;89.40
3298;DHT22;1661;53.572;10.174;2023-11-19T13:07:51;13.00;89.20
3298;DHT22;1661;53.572;10.174;2023-11-19T13:10:25;13.00;89.10
3298;DHT22;1661;53.572;10.174;2023-11-19T13:13:06;13.00;89.10
3298;DHT22;1661;53.572;10.174;2023-11-19T13:15:34;13.00;89.20
3298;DHT22;1661;53.572;10.174;2023-11-19T13:18:02;13.10;89.10
3298;DHT22;1661;53.572;10.174;2023-11-19T13:20:29;13.20;89.00
3298;DHT22;1661;53.572;10.174;2023-11-19T13:22:58;13.30;88.50
3298;DHT22;1661;53.572;10.174;2023-11-19T13:25:27;13.30;88.30
3298;DHT22;1661;53.572;10.174;2023-11-19T13:27:54;13.30;88.20
3298;DHT22;1661;53.572;10.174;2023-11-19T13:30:22;13.30;88.00
3298;DHT22;1661;53.572;10.174;2023-11-19T13:32:49;13.20;88.00
3298;DHT22;1661;53.572;10.174;2023-11-19T13:35:16;13.20;87.90
3298;DHT22;1661;53.572;10.174;2023-11-19T13:37:43;13.10;87.70
3298;DHT22;1661;53.572;10.174;2023-11-19T13:40:11;13.10;87.80
3298;DHT22;1661;53.572;10.174;2023-11-19T13:42:41;13.10;87.80
3298;DHT22;1661;53.572;10.174;2023-11-19T13:45:09;13.10;87.60
3298;DHT22;1661;53.572;10.174;2023-11-19T13:47:37;13.10;87.70
3298;DHT22;1661;53.572;10.174;2023-11-19T13:50:07;13.10;87.30
3298;DHT22;1661;53.572;10.174;2023-11-19T13:52:34;13.10;87.40
3298;DHT22;1661;53.572;10.174;2023-11-19T13:55:02;13.10;87.10
3298;DHT22;1661;53.572;10.174;2023-11-19T13:57:30;13.10;87.40
3298;DHT22;1661;53.572;10.174;2023-11-19T13:59:59;13.20;87.30
3298;DHT22;1661;53.572;10.174;2023-11-19T14:02:30;13.20;86.80
3298;DHT22;1661;53.572;10.174;2023-11-19T14:04:57;13.10;87.00
3298;DHT22;1661;53.572;10.174;2023-11-19T14:07:26;13.10;87.10
3298;DHT22;1661;53.572;10.174;2023-11-19T14:09:53;13.20;87.40
3298;DHT22;1661;53.572;10.174;2023-11-19T14:12:20;13.10;87.50
3298;DHT22;1661;53.572;10.174;2023-11-19T14:14:46;13.20;87.90
3298;DHT22;1661;53.572;10.174;2023-11-19T14:17:15;13.20;87.80
3298;DHT22;1661;53.572;10.174;2023-11-19T14:19:42;13.20;87.40
3298;DHT22;1661;53.572;10.174;2023-11-19T14:22:09;13.10;87.50
3298;DHT22;1661;53.572;10.174;2023-11-19T14:24:36;13.10;87.50
3298;DHT22;1661;53.572;10.174;2023-11-19T14:27:03;13.10;87.20
3298;DHT22;1661;53.572;10.174;2023-11-19T14:29:30;13.10;87.00
3298;DHT22;1661;53.572;10.174;2023-11-19T14:31:56;13.10;87.30
3298;DHT22;1661;53.572;10.174;2023-11-19T14:34:25;13.10;86.90
3298;DHT22;1661;53.572;10.174;2023-11-19T14:36:52;13.00;87.20
3298;DHT22;1661;53.572;10.174;2023-11-19T14:39:19;13.00;87.40
3298;DHT22;1661;53.572;10.174;2023-11-19T14:41:46;13.00;87.70
3298;DHT22;1661;53.572;10.174;2023-11-19T14:44:13;13.00;87.90
3298;DHT22;1661;53.572;10.174;2023-11-19T14:46:39;12.90;88.80
3298;DHT22;1661;53.572;10.174;2023-11-19T14:49:06;12.80;89.20
3298;DHT22;1661;53.572;10.174;2023-11-19T14:51:36;12.60;89.60
3298;DHT22;1661;53.572;10.174;2023-11-19T14:54:03;12.70;90.00
3298;DHT22;1661;53.572;10.174;2023-11-19T14:56:30;12.60;90.20
3298;DHT22;1661;53.572;10.174;2023-11-19T14:58:57;12.70;90.20
3298;DHT22;1661;53.572;10.174;2023-11-19T15:01:24;12.70;90.20
3298;DHT22;1661;53.572;10.174;2023-11-19T15:03:52;12.80;90.00
3298;DHT22;1661;53.572;10.174;2023-11-19T15:06:23;12.80;90.00
3298;DHT22;1661;53.572;10.174;2023-11-19T15:08:52;12.80;90.10
3298;DHT22;1661;53.572;10.174;2023-11-19T15:11:18;12.80;90.20
3298;DHT22;1661;53.572;10.174;2023-11-19T15:13:45;12.90;90.20
3298;DHT22;1661;53.572;10.174;2023-11-19T15:16:12;12.80;90.70
3298;DHT22;1661;53.572;10.174;2023-11-19T15:18:40;12.40;92.30
3298;DHT22;1661;53.572;10.174;2023-11-19T15:21:07;12.20;92.60
3298;DHT22;1661;53.572;10.174;2023-11-19T15:23:34;12.10;92.90
3298;DHT22;1661;53.572;10.174;2023-11-19T15:26:04;12.00;92.70
3298;DHT22;1661;53.572;10.174;2023-11-19T15:28:32;11.90;92.80
3298;DHT22;1661;53.572;10.174;2023-11-19T15:30:59;12.00;92.50
3298;DHT22;1661;53.572;10.174;2023-11-19T15:33:25;12.00;91.80
3298;DHT22;1661;53.572;10.174;2023-11-19T15:35:53;12.00;91.20
3298;DHT22;1661;53.572;10.174;2023-11-19T15:38:19;12.00;90.50
3298;DHT22;1661;53.572;10.174;2023-11-19T15:40:46;12.00;90.00
3298;DHT22;1661;53.572;10.174;2023-11-19T15:43:14;11.90;89.40
3298;DHT22;1661;53.572;10.174;2023-11-19T15:45:41;11.80;89.00
3298;DHT22;1661;53.572;10.174;2023-11-19T15:48:08;11.60;89.70
3298;DHT22;1661;53.572;10.174;2023-11-19T15:50:39;11.50;90.20
3298;DHT22;1661;53.572;10.174;2023-11-19T15:53:05;11.60;90.50
3298;DHT22;1661;53.572;10.174;2023-11-19T15:55:32;11.70;90.40
3298;DHT22;1661;53.572;10.174;2023-11-19T15:57:59;11.80;90.30
3298;DHT22;1661;53.572;10.174;2023-11-19T16:00:28;11.80;90.10
3298;DHT22;1661;53.572;10.174;2023-11-19T16:02:54;11.90;90.00